Edwards Creek Valley, Nevada Weather observations

Data are for observation ending at time listed.
 Day   Time    Ave.   Ave.  Ave.  Vector   Max.   Stn.    Total    Solar   Ave.  
  of    of     Air    Rel.  Wind   Wind    Wind   Baro.  Precip.   Rad.    Soil  
Year   Day     Temp.  Hum.  Speed  Dir.    Gust   Pres.                    Temp. 
2016   (PST)    F      %     mph   deg.    mph     mb.     in.     W/m2     F   
------------------------------------------------------------------------------
 176    7:30   71.3    11    2.0    37      4.5    850     0.00     560     75.1
 176    7:40   71.5    11    3.4     5      7.5    850     0.00     594     75.6
 176    7:50   72.1    11    4.0    30      6.8    850     0.00     625     76.2
 176    8:00   74.0    10    2.5    85      6.8    850     0.00     654     76.7
 176    8:10   73.4    11    4.4    25      8.3    850     0.00     686     77.4
 176    8:20   74.2    10    3.2   327      9.8    849     0.00     715     78.2
 176    8:30   74.6    10    3.0   324      7.7    850     0.00     742     79.0
 176    8:40   75.9    10    2.9    66      7.0    850     0.00     770     79.8
 176    8:50   77.1    10    3.5   191     11.5    850     0.00     794     80.7
 176    9:00   77.1    10    5.4   350     14.4    850     0.00     819     81.6
 176    9:10   76.4    10    3.5   297      8.8    850     0.00     841     82.5
 176    9:20   78.1    10    5.2   233     10.2    850     0.00     864     83.4
 176    9:30   79.2    10    9.5   207     15.9    849     0.00     889     84.4
 176    9:40   79.4     9   10.1   208     18.6    850     0.00     913     85.3
 176    9:50   79.4     9   10.3   205     16.4    850     0.00     932     86.1
 176   10:00   79.5     9    9.6   194     17.5    850     0.00     952     87.0
 176   10:10   79.8     9   10.8   204     18.6    850     0.00     967     87.8
 176   10:20   80.5     9    9.9   208     18.9    850     0.00     980     88.6
 176   10:30   80.0    10    9.5   251     20.0    850     0.00     991     89.4
 176   10:40   79.2    10    7.3   303     13.0    850     0.00    1003     90.2
 176   10:50   79.6    10    7.5   295     16.5    850     0.00    1012     91.0
 176   11:00   78.8    10    5.8   263     17.3    850     0.00    1020     91.8
 176   11:10   79.6    11    8.0   289     17.1    850     0.00    1022     92.6
 176   11:20   79.8    10    9.5   275     17.2    850     0.00    1032     93.4
 176   11:30   80.1    11   10.5   308     15.7    850     0.00    1038     94.2
 176   11:40   80.3    10    7.6   286     16.4    850     0.00    1043     95.0
 176   11:50   80.7    10    7.6   255     22.0    850     0.00    1042     95.7
 176   12:00   80.3    11   11.7   305     29.7    850     0.00    1042     96.4
 176   12:10   80.7    10   11.6   275     19.2    850     0.00    1045     97.2
 176   12:20   81.0    10   12.3   273     18.8    850     0.00    1041     97.8
 176   12:30   80.9    10   12.9   279     20.4    850     0.00    1039     98.4
 176   12:40   81.2    10   12.5   284     19.4    850     0.00    1036     99.0
 176   12:50   81.9    10   10.7   259     20.3    850     0.00    1030     99.5
 176   13:00   81.0    10    7.3   267     14.8    850     0.00    1018    100.0
 176   13:10   81.7    10   10.6   288     17.7    850     0.00    1009    100.5
 176   13:20   81.6    10   13.1   295     23.2    850     0.00     999    101.0
 176   13:30   81.0    10   10.0   298     18.0    850     0.00     985    101.5
 176   13:40   81.4    10   12.9   302     20.2    850     0.00     968    101.9
 176   13:50   81.2    10    9.9   312     17.0    850     0.00     949    102.3
 176   14:00   81.8    10   11.2   302     18.9    850     0.00     934    102.7
 176   14:10   82.0    10   12.5   286     21.7    850     0.00     918    103.0
 176   14:20   82.3    10   12.8   293     21.3    850     0.00     897    103.3
 176   14:30   82.2    10   13.6   300     20.4    850     0.00     873    103.5
 176   14:40   81.8    10   12.6   309     21.6    850     0.00     852    103.7
 176   14:50   82.0     9   10.4   273     21.9    850     0.00     830    103.8
 176   15:00   82.0     9    8.4   292     17.7    850     0.00     804    103.9
 176   15:10   82.0     9    9.9   292     18.6    850     0.00     777    103.9
 176   15:20   82.2     8    7.7   300     15.0    850     0.00     751    103.9
 176   15:30   82.5     8    9.8   313     16.0    849     0.00     724    104.0
 176   15:40   82.5     7    9.5   293     19.3    849     0.00     694    103.9
 176   15:50   82.3     7   12.5   284     21.0    849     0.00     659    103.9
 176   16:00   82.3     6   13.3   292     21.5    849     0.00     624    103.8
 176   16:10   81.7     7   10.1   289     17.4    849     0.00     596    103.6
 176   16:20   81.7     7    7.8   279     17.8    849     0.00     565    103.3
 176   16:30   82.1     7   11.1   289     17.5    849     0.00     534    103.0
 176   16:40   81.5     7   12.3   286     21.7    849     0.00     503    102.7
 176   16:50   81.4     7   10.5   269     17.1    849     0.00     467    102.3
 176   17:00   81.2     7    9.6   265     14.8    849     0.00     433    102.0
 176   17:10   81.8     7    7.7   262     12.8    849     0.00     401    101.6
 176   17:20   81.4     7   10.7   276     16.8    849     0.00     369    101.2
 176   17:30   80.8     7    9.1   297     14.0    849     0.00     330    100.8
 176   17:40   80.9     7    8.2   281     13.4    849     0.00     290    100.3
 176   17:50   80.5     7    8.8   278     14.2    849     0.00     258     99.9
 176   18:00   80.0     8    9.4   283     14.2    849     0.00     230     99.4
 176   18:10   79.8     8    9.0   277     15.8    849     0.00     194     98.9
 176   18:20   79.2     8    9.9   297     16.4    849     0.00     164     98.4
 176   18:30   78.5     8    5.8   292     11.1    849     0.00     133     97.9
 176   18:40   78.4     8    4.3   305      6.2    849     0.00     110     97.3
 176   18:50   77.7     8    4.9   327      8.7    849     0.00      80     96.8
 176   19:00   76.3     8    4.6   318      6.6    849     0.00      46     96.2
 176   19:10   74.1     9    4.0   308      5.8    849     0.00      13     95.7
 176   19:20   72.0     9    3.4   310      4.6    849     0.00       8     95.1
 176   19:30   70.6    10    3.0   316      4.0    849     0.00       4     94.5
 176   19:40   69.1    10    3.8   295      5.3    849     0.00       2     94.0
 176   19:50   67.8    11    2.9   305      3.6    849     0.00       0     93.4
 176   20:00   65.9    11    3.3   262      4.6    849     0.00       0     92.8
 176   20:10   63.5    12    3.0   254      4.2    849     0.00       0     92.2
 176   20:20   61.7    13    2.7   202      3.9    849     0.00       0     91.6
 176   20:30   59.1    14    3.5   162      5.0    849     0.00       0     91.0
 176   20:40   59.9    14    3.9   155      7.0    849     0.00       0     90.5
 176   20:50   59.8    14    5.0   160      6.7    850     0.00       0     89.9
 176   21:00   60.6    14    5.4   153      7.9    850     0.00       0     89.4
 176   21:10   62.0    14    5.2   159      7.1    850     0.00       0     88.9
 176   21:20   61.5    14    5.0   165      6.8    849     0.00       0     88.4
 176   21:30   60.8    14    6.0   162      9.3    850     0.00       0     87.9
 176   21:40   60.8    14    5.0   150      7.0    850     0.00       0     87.4
 176   21:50   60.9    14    5.0   151      6.9    849     0.00       0     86.9
 176   22:00   59.4    15    4.8   153      6.4    849     0.00       0     86.5
 176   22:10   58.6    16    5.4   146      6.9    848     0.00       0     86.1
 176   22:20   58.5    16    4.5   144      5.5    849     0.00       0     85.7
 176   22:30   57.3    17    4.5   156      5.7    849     0.00       0     85.2
 176   22:40   57.1    17    5.1   145      6.9    849     0.00       0     84.8
 176   22:50   56.5    17    3.3   176      5.3    850     0.00       0     84.4
 176   23:00   55.3    18    2.0   266      4.7    850     0.00       0     84.0
 176   23:10   53.7    20    1.8   208      2.5    850     0.00       0     83.6
 176   23:20   52.7    20    2.5   214      4.6    850     0.00       0     83.2
 176   23:30   52.1    20    2.5   235      4.2    850     0.00       0     82.8
 176   23:40   50.1    21    2.2   269      4.2    850     0.00       0     82.4
 176   23:50   51.5    20    2.3   287      3.1    850     0.00       0     82.0
 177    0:00   54.9    18    2.1   263      3.3    851     0.00       0     81.6
 177    0:10   56.0    18    2.4   199      3.5    850     0.00       0     81.3
 177    0:20   53.1    19    3.0   160      4.1    850     0.00       0     80.9
 177    0:30   51.6    21    1.6   178      2.2    850     0.00       0     80.5
 177    0:40   50.7    20    2.8   150      4.2    851     0.00       0     80.2
 177    0:50   46.9    23    1.4   198      2.4    850     0.00       0     79.8
 177    1:00   47.0    24    1.8   153      4.3    849     0.00       0     79.5
 177    1:10   46.5    24    2.2   250      3.8    851     0.00       0     79.1
 177    1:20   46.5    26    2.9   174      3.8    851     0.00       0     78.8
 177    1:30   49.6    24    4.0   163      5.9    850     0.00       0     78.4
 177    1:40   49.3    25    4.7   151      6.1    850     0.00       0     78.1
 177    1:50   50.5    24    5.2   140      6.7    850     0.00       0     77.7
 177    2:00   50.8    24    4.5   141      5.9    850     0.00       0     77.4
 177    2:10   50.8    25    5.2   143      7.2    850     0.00       0     77.1
 177    2:20   50.5    25    4.8   138      6.6    850     0.00       0     76.9
 177    2:30   51.2    25    3.7   131      6.1    850     0.00       0     76.6
 177    2:40   50.8    25    3.1   145      4.3    850     0.00       0     76.3
 177    2:50   48.8    26    1.9   194      2.7    851     0.00       0     76.0
 177    3:00   46.2    28    2.0   254      4.0    850     0.00       0     75.8
 177    3:10   47.9    28    1.6   230      3.4    850     0.00       0     75.5
 177    3:20   50.0    27    0.2   146      1.2    851     0.00       0     75.2
 177    3:30   50.8    26    2.4   106      3.7    852     0.00       0     74.9
 177    3:40   50.3    25    4.8    75      7.2    852     0.00       0     74.6
 177    3:50   50.2    25    4.1    62      5.6    851     0.00       0     74.4
 177    4:00   48.2    26    2.8    21      4.5    851     0.00       0     74.1
 177    4:10   46.5    28    2.6    92      4.5    852     0.00       0     73.8
 177    4:20   47.3    27    2.7   124      4.5    852     0.00       2     73.5
 177    4:30   45.8    29    1.2   285      3.3    852     0.00       5     73.3
 177    4:40   45.6    29    1.1   227      2.0    851     0.00       8     73.0
 177    4:50   45.9    29    0.9   167      2.8    851     0.00      26     72.8
 177    5:00   48.3    27    2.2    57      4.0    850     0.00      58     72.5
 177    5:10   46.7    28    1.9   207      3.1    850     0.00      93     72.2
 177    5:20   50.4    26    2.0   130      3.2    850     0.00     131     72.1
 177    5:30   55.6    23    2.3    79      4.0    850     0.00     165     71.9
 177    5:40   56.6    22    1.1   282      3.4    850     0.00     197     71.7
 177    5:50   56.0    24    0.9   306      2.3    850     0.00     230     71.6
 177    6:00   58.0    21    1.6   328      3.1    850     0.00     263     71.5
 177    6:10   58.9    20    3.1   337      5.0    850     0.00     297     71.5
 177    6:20   59.0    20    3.5   353      6.4    850     0.00     332     71.5
 177    6:30   59.4    20    4.3   350      6.3    850     0.00     366     71.7
 177    6:40   60.2    20    3.7   354      6.1    851     0.00     400     71.8
 177    6:50   60.9    19    3.9     8      6.8    850     0.00     434     72.0
 177    7:00   61.3    19    4.4     4      7.2    851     0.00     469     72.2
 177    7:10   62.0    19    4.6   351      7.6    851     0.00     503     72.5
 177    7:20   62.6    18    4.6     2      7.2    851     0.00     536     72.9

Return to Carson Sink graphs page.


Western Regional Climate Center,wrcc@dri.edu